Time;durP1;ratioP1;P1;durP2;ratioP2;P2;SDS_P1;SDS_P2;PMS_P1;PMS_P2;Temp;Humidity;BMP_temperature;BMP_pressure;BME280_temperature;BME280_humidity;BME280_pressure;Samples;Min_cycle;Max_cycle;Signal;HPM_P1;HPM_P2
2022/08/06 00:01:49;;;;;;;0.82;0.60;;;;;;;16.36;90.46;101554.25;4991673;28;20113;-67
2022/08/06 00:04:15;;;;;;;1.25;0.70;;;;;;;16.40;90.42;101549.63;4992037;28;20469;-67
2022/08/06 00:06:40;;;;;;;3.13;0.90;;;;;;;16.37;90.51;101551.19;4990900;28;20085;-67
2022/08/06 00:09:06;;;;;;;0.88;0.80;;;;;;;16.32;90.46;101554.22;4990219;28;20450;-67
2022/08/06 00:11:32;;;;;;;0.70;0.70;;;;;;;16.32;90.50;101558.91;5003280;28;20029;-67
2022/08/06 00:13:57;;;;;;;2.05;0.65;;;;;;;16.27;90.72;101562.72;5007039;28;20432;-67
2022/08/06 00:16:22;;;;;;;1.75;0.85;;;;;;;16.25;90.50;101565.81;4990106;28;20081;-68
2022/08/06 00:18:48;;;;;;;1.05;0.73;;;;;;;16.22;90.82;101561.09;4990219;28;20041;-67
2022/08/06 00:21:14;;;;;;;1.95;0.70;;;;;;;16.25;91.06;101560.38;4990252;28;20093;-68
2022/08/06 00:23:39;;;;;;;1.10;0.73;;;;;;;16.24;90.77;101558.78;4991508;28;20454;-67
2022/08/06 00:26:05;;;;;;;2.95;0.73;;;;;;;16.21;91.13;101562.25;4990652;28;20078;-67
2022/08/06 00:28:30;;;;;;;1.58;0.75;;;;;;;16.24;90.94;101563.44;4990071;28;20046;-67
2022/08/06 00:30:55;;;;;;;2.08;0.95;;;;;;;16.32;90.09;101562.38;4991273;28;20450;-67
2022/08/06 00:33:21;;;;;;;1.13;1.02;;;;;;;16.24;90.62;101564.22;4991479;28;20030;-67
2022/08/06 00:35:46;;;;;;;1.85;0.63;;;;;;;16.23;90.54;101568.13;4990805;28;20069;-67
2022/08/06 00:38:12;;;;;;;0.68;0.50;;;;;;;16.23;90.26;101570.84;4987999;28;20061;-67
2022/08/06 00:40:38;;;;;;;0.80;0.73;;;;;;;16.22;90.24;101582.84;4998310;28;20346;-67
2022/08/06 00:43:04;;;;;;;0.68;0.68;;;;;;;16.21;90.58;101577.78;4995457;28;20536;-67
2022/08/06 00:45:32;;;;;;;1.17;0.80;;;;;;;16.22;90.57;101582.84;4990351;28;20030;-67
2022/08/06 00:47:58;;;;;;;4.25;1.00;;;;;;;16.13;90.42;101570.69;5007162;28;20041;-67
2022/08/06 00:50:24;;;;;;;1.02;0.82;;;;;;;16.16;90.33;101578.13;4990969;28;20050;-67
2022/08/06 00:52:49;;;;;;;0.50;0.50;;;;;;;16.09;90.80;101583.44;4991449;28;20054;-67
2022/08/06 00:55:15;;;;;;;1.90;0.60;;;;;;;16.09;90.54;101583.44;4991250;28;20023;-67
2022/08/06 00:57:40;;;;;;;1.38;0.63;;;;;;;16.03;90.52;101587.63;4992201;28;20050;-67
2022/08/06 01:00:07;;;;;;;2.95;0.50;;;;;;;16.08;90.58;101596.28;4995355;28;20049;-67
2022/08/06 01:02:34;;;;;;;0.60;0.60;;;;;;;16.06;90.13;101595.84;5009451;28;20034;-67
2022/08/06 01:04:59;;;;;;;0.80;0.65;;;;;;;16.06;90.49;101601.28;4994884;28;20394;-67
2022/08/06 01:07:25;;;;;;;1.58;0.90;;;;;;;15.98;90.47;101607.00;4990779;28;20022;-67
2022/08/06 01:09:50;;;;;;;0.95;0.80;;;;;;;16.02;90.87;101605.91;4977313;28;20518;-67
2022/08/06 01:12:16;;;;;;;0.75;0.60;;;;;;;16.04;90.59;101616.41;5012491;28;20037;-67
2022/08/06 01:14:42;;;;;;;2.03;0.65;;;;;;;15.89;90.68;101618.13;5013713;28;20025;-67
2022/08/06 01:17:39;;;;;;;0.85;0.80;;;;;;;15.83;91.14;101625.00;4994996;28;20038;-67
2022/08/06 01:20:38;;;;;;;1.38;0.68;;;;;;;15.86;90.83;101621.56;4981947;28;20058;-67
2022/08/06 01:23:09;;;;;;;0.77;0.60;;;;;;;15.85;90.95;101622.72;4994713;28;20045;-67
2022/08/06 01:25:41;;;;;;;0.88;0.70;;;;;;;15.89;91.00;101622.78;4993390;28;20150;-67
2022/08/06 01:28:12;;;;;;;;;;;;;;;15.92;90.68;101627.47;4993930;28;20030;-67
2022/08/06 01:30:52;;;;;;;0.80;0.43;;;;;;;15.95;90.89;101638.38;5009598;28;19918;-67
2022/08/06 01:33:32;;;;;;;3.95;0.75;;;;;;;15.88;90.29;101637.50;4995109;28;20046;-67
2022/08/06 01:36:04;;;;;;;2.30;0.77;;;;;;;15.81;90.54;101629.25;4991790;28;20092;-67
2022/08/06 01:38:40;;;;;;;1.50;0.95;;;;;;;15.75;90.77;101631.50;4991534;28;20037;-67
2022/08/06 01:41:08;;;;;;;0.93;0.57;;;;;;;15.74;91.27;101634.56;5004856;28;20069;-67
2022/08/06 01:43:35;;;;;;;0.68;0.68;;;;;;;15.73;91.22;101635.72;4996103;28;20036;-67
2022/08/06 01:46:02;;;;;;;2.78;1.10;;;;;;;15.64;91.63;101633.25;5004367;28;20037;-67
2022/08/06 01:48:32;;;;;;;0.77;0.60;;;;;;;15.61;91.36;101628.56;5004004;28;20049;-67
2022/08/06 01:51:01;;;;;;;1.25;0.73;;;;;;;15.66;91.34;101627.50;4984724;28;20046;-67
2022/08/06 01:53:36;;;;;;;1.73;0.90;;;;;;;15.70;90.77;101641.91;5004051;28;20026;-67
2022/08/06 01:56:06;;;;;;;3.30;1.30;;;;;;;15.63;91.24;101631.72;4998785;28;20042;-67
2022/08/06 01:58:38;;;;;;;1.35;0.93;;;;;;;15.61;91.37;101631.28;4997218;28;20026;-67
2022/08/06 02:01:08;;;;;;;0.70;0.70;;;;;;;15.57;91.42;101626.94;5003718;28;20450;-67
2022/08/06 02:03:39;;;;;;;2.08;0.95;;;;;;;15.58;91.79;101634.72;4993848;28;20038;-67
2022/08/06 02:06:06;;;;;;;;;;;;;;;15.57;92.07;101637.78;4993687;28;20517;-67
2022/08/06 02:08:36;;;;;;;0.63;0.60;;;;;;;15.56;92.43;101639.75;4991858;28;19917;-67
2022/08/06 02:11:03;;;;;;;1.57;1.20;;;;;;;15.57;92.19;101633.16;4998950;28;20042;-67
2022/08/06 02:13:31;;;;;;;1.20;1.10;;;;;;;15.60;92.03;101637.84;5008306;28;20049;-67
2022/08/06 02:15:57;;;;;;;0.82;0.55;;;;;;;15.59;92.46;101635.50;4999978;28;20117;-67
2022/08/06 02:18:24;;;;;;;1.17;0.60;;;;;;;15.58;92.45;101640.13;4992687;28;20035;-68
2022/08/06 02:20:52;;;;;;;1.30;0.65;;;;;;;15.56;92.39;101645.19;4991221;28;20119;-67
2022/08/06 02:23:21;;;;;;;1.30;0.98;;;;;;;15.53;92.26;101643.19;5001494;28;20569;-67
2022/08/06 02:25:51;;;;;;;0.82;0.70;;;;;;;15.49;92.53;101642.34;5004299;28;20046;-67
2022/08/06 02:28:19;;;;;;;0.80;0.80;;;;;;;15.56;92.26;101645.19;5010884;28;20030;-67
2022/08/06 02:30:46;;;;;;;1.27;0.93;;;;;;;15.55;92.05;101645.53;4999359;28;20038;-67
2022/08/06 02:33:13;;;;;;;2.30;0.98;;;;;;;15.52;92.55;101636.19;4992704;28;20514;-67
2022/08/06 02:36:07;;;;;;;1.40;1.30;;;;;;;15.49;92.74;101638.81;4993028;28;20030;-67
2022/08/06 02:38:48;;;;;;;0.85;0.73;;;;;;;15.44;92.80;101639.94;4992376;28;20044;-67
2022/08/06 02:41:39;;;;;;;3.55;0.90;;;;;;;15.39;92.41;101646.41;4998610;28;20073;-67
2022/08/06 02:44:04;;;;;;;1.08;0.75;;;;;;;15.41;92.60;101653.44;4976055;28;20052;-67
2022/08/06 02:46:57;;;;;;;0.70;0.60;;;;;;;15.44;92.38;101648.06;4993101;28;20026;-67
2022/08/06 02:49:26;;;;;;;0.95;0.82;;;;;;;15.46;91.73;101653.94;4992213;28;20399;-67
2022/08/06 02:52:03;;;;;;;2.00;0.82;;;;;;;15.40;92.13;101647.19;4992568;28;20060;-67
2022/08/06 02:54:37;;;;;;;0.70;0.70;;;;;;;15.39;92.16;101659.19;4993345;28;20045;-67
2022/08/06 02:57:06;;;;;;;1.10;0.60;;;;;;;15.40;91.95;101649.91;4992365;28;20038;-67
2022/08/06 02:59:35;;;;;;;1.05;0.68;;;;;;;15.35;92.13;101653.72;4991431;28;20030;-67
2022/08/06 03:02:02;;;;;;;2.75;0.70;;;;;;;15.25;92.36;101650.81;4992791;28;20030;-67
2022/08/06 03:04:30;;;;;;;1.48;0.80;;;;;;;15.24;92.64;101649.25;4992676;28;20045;-67
2022/08/06 03:06:58;;;;;;;2.13;1.13;;;;;;;15.19;92.69;101660.41;4992021;28;20491;-67
2022/08/06 03:09:24;;;;;;;1.90;0.75;;;;;;;15.24;92.67;101660.09;4993487;28;20410;-67
2022/08/06 03:11:52;;;;;;;0.65;0.52;;;;;;;15.32;92.55;101653.66;4997452;28;20038;-67
2022/08/06 03:14:19;;;;;;;1.45;0.75;;;;;;;15.30;92.65;101659.44;4992687;28;20045;-67
2022/08/06 03:16:46;;;;;;;1.13;0.75;;;;;;;15.32;92.73;101657.16;4992075;28;20038;-67
2022/08/06 03:19:12;;;;;;;1.95;0.80;;;;;;;15.33;92.79;101669.56;4978918;28;20121;-67
2022/08/06 03:21:41;;;;;;;1.20;0.90;;;;;;;15.35;93.17;101675.44;4983684;28;20105;-67
2022/08/06 03:24:08;;;;;;;0.60;0.60;;;;;;;15.37;93.07;101672.34;4992629;28;20034;-67
2022/08/06 03:26:35;;;;;;;4.70;1.10;;;;;;;15.37;93.28;101667.69;4991946;28;20065;-67
2022/08/06 03:29:02;;;;;;;1.70;1.10;;;;;;;15.38;93.42;101679.34;4991371;28;20085;-67
2022/08/06 03:31:29;;;;;;;1.20;0.93;;;;;;;15.41;93.31;101673.19;4991830;28;20034;-67
2022/08/06 03:33:56;;;;;;;1.98;0.82;;;;;;;15.44;93.28;101679.88;4992126;28;20049;-67
2022/08/06 03:36:23;;;;;;;1.42;0.95;;;;;;;15.44;93.15;101683.38;4992142;28;20043;-67
2022/08/06 03:38:58;;;;;;;4.55;1.20;;;;;;;15.44;93.36;101686.09;4988791;28;20471;-67
2022/08/06 03:41:29;;;;;;;1.30;0.95;;;;;;;15.43;93.52;101683.75;4990572;28;20034;-67
2022/08/06 03:43:54;;;;;;;2.78;0.98;;;;;;;15.43;93.40;101681.78;4991680;28;20400;-67
2022/08/06 03:46:28;;;;;;;1.02;0.80;;;;;;;15.43;93.49;101689.16;4991584;28;20046;-67
2022/08/06 03:48:58;;;;;;;1.75;1.10;;;;;;;15.45;93.36;101690.34;4990773;28;20076;-67
2022/08/06 03:51:27;;;;;;;1.40;0.93;;;;;;;15.41;93.54;101699.56;4992353;28;20053;-67
2022/08/06 03:53:53;;;;;;;1.58;1.20;;;;;;;15.41;93.36;101700.34;4992108;28;20133;-67
2022/08/06 03:56:23;;;;;;;1.02;0.90;;;;;;;15.39;93.75;101703.41;4982160;28;20045;-67
2022/08/06 03:58:52;;;;;;;1.27;0.80;;;;;;;15.37;93.97;101702.19;4990515;28;20042;-67
2022/08/06 04:01:23;;;;;;;1.35;0.88;;;;;;;15.33;93.26;101701.34;4991191;28;20164;-67
2022/08/06 04:03:50;;;;;;;2.08;1.10;;;;;;;15.24;93.71;101707.03;4992005;28;20062;-67
2022/08/06 04:06:19;;;;;;;2.08;1.23;;;;;;;15.20;94.09;101700.75;4991533;28;20038;-67
2022/08/06 04:08:45;;;;;;;1.70;1.27;;;;;;;15.22;94.41;101698.47;4992339;28;20033;-67
2022/08/06 04:11:11;;;;;;;1.17;0.68;;;;;;;15.21;94.15;101699.59;4997267;28;20073;-67
2022/08/06 04:13:39;;;;;;;1.98;1.02;;;;;;;15.25;94.08;101715.97;5006963;28;20490;-67
2022/08/06 04:16:05;;;;;;;2.30;0.90;;;;;;;15.22;94.18;101713.94;4990887;28;20034;-67
2022/08/06 04:18:37;;;;;;;2.20;1.10;;;;;;;15.22;94.35;101713.94;4990857;28;20042;-67
2022/08/06 04:21:07;;;;;;;1.85;1.08;;;;;;;15.21;94.01;101724.00;4989922;28;20575;-67
2022/08/06 04:23:33;;;;;;;1.33;0.77;;;;;;;15.27;94.32;101725.28;4998242;28;20121;-67
2022/08/06 04:26:02;;;;;;;1.95;1.27;;;;;;;15.31;93.83;101719.97;4991825;28;20383;-67
2022/08/06 04:28:29;;;;;;;1.70;1.08;;;;;;;15.29;94.45;101728.44;4990181;28;20048;-67
2022/08/06 04:30:58;;;;;;;1.33;1.00;;;;;;;15.30;94.61;101737.38;4990775;28;20038;-67
2022/08/06 04:33:25;;;;;;;1.52;1.00;;;;;;;15.35;94.67;101745.22;4991395;28;20042;-67
2022/08/06 04:35:52;;;;;;;2.38;1.23;;;;;;;15.33;94.74;101747.50;4991727;28;20467;-67
2022/08/06 04:38:20;;;;;;;1.45;0.90;;;;;;;15.33;94.56;101736.63;4990047;28;20034;-67
2022/08/06 04:40:46;;;;;;;2.22;0.88;;;;;;;15.38;94.76;101748.00;4989460;28;20042;-67
2022/08/06 04:43:12;;;;;;;1.42;1.00;;;;;;;15.37;94.51;101749.16;5002745;28;20040;-67
2022/08/06 04:45:40;;;;;;;6.22;1.10;;;;;;;15.41;94.23;101754.63;4991878;28;20042;-66
2022/08/06 04:48:09;;;;;;;1.98;1.08;;;;;;;15.40;94.13;101758.50;4990483;28;20393;-67
2022/08/06 04:50:36;;;;;;;1.55;1.15;;;;;;;15.41;94.19;101765.50;4991408;28;20034;-67
2022/08/06 04:53:13;;;;;;;1.17;1.05;;;;;;;15.43;94.34;101765.94;4991176;28;20038;-67
2022/08/06 04:55:40;;;;;;;2.78;1.05;;;;;;;15.43;94.46;101768.66;4991911;28;20035;-66
2022/08/06 04:58:07;;;;;;;1.48;0.95;;;;;;;15.44;94.12;101770.25;4985156;28;20057;-67
2022/08/06 05:00:35;;;;;;;1.67;1.10;;;;;;;15.46;94.14;101776.09;4988655;28;20034;-67
2022/08/06 05:03:00;;;;;;;1.08;0.93;;;;;;;15.47;94.56;101785.81;5002634;28;20038;-67
2022/08/06 05:05:28;;;;;;;2.03;1.10;;;;;;;15.48;94.66;101781.97;5001851;28;20068;-67
2022/08/06 05:07:55;;;;;;;1.25;1.00;;;;;;;15.53;95.18;101789.81;4990267;28;20031;-67
2022/08/06 05:10:26;;;;;;;2.78;0.90;;;;;;;15.58;94.73;101792.22;4991421;28;20049;-67
2022/08/06 05:12:55;;;;;;;3.53;1.13;;;;;;;15.59;95.15;101785.66;5007955;28;20057;-67
2022/08/06 05:15:35;;;;;;;1.27;0.82;;;;;;;15.71;95.13;101801.78;5003567;28;20403;-67
2022/08/06 05:18:09;;;;;;;1.38;1.02;;;;;;;15.79;95.11;101791.84;4989840;28;20058;-67
2022/08/06 05:20:40;;;;;;;2.15;1.20;;;;;;;15.84;95.14;101803.19;4990933;28;20380;-67
2022/08/06 05:23:18;;;;;;;;;;;;;;;15.92;95.36;101799.44;4991922;28;20038;-67
2022/08/06 05:25:44;;;;;;;3.03;1.08;;;;;;;16.02;95.46;101817.06;4990493;28;19960;-66
2022/08/06 05:28:09;;;;;;;1.70;1.10;;;;;;;16.13;95.26;101815.31;4989518;28;20429;-67
2022/08/06 05:30:42;;;;;;;1.40;1.00;;;;;;;16.16;95.22;101820.03;4990844;28;20034;-67
2022/08/06 05:33:07;;;;;;;1.33;1.20;;;;;;;16.26;95.46;101824.84;4991036;28;20035;-67
2022/08/06 05:35:34;;;;;;;1.45;1.30;;;;;;;16.54;95.53;101821.81;4990235;28;20109;-67
2022/08/06 05:38:00;;;;;;;4.25;1.50;;;;;;;16.79;94.58;101833.84;5006321;28;20037;-67
2022/08/06 05:40:33;;;;;;;7.85;1.65;;;;;;;17.00;93.89;101831.41;4997136;28;20367;-67
2022/08/06 05:42:58;;;;;;;4.47;1.73;;;;;;;17.28;90.84;101831.78;5002224;28;20046;-67
2022/08/06 05:45:24;;;;;;;4.03;1.50;;;;;;;17.43;91.36;101836.22;4994488;28;20439;-67
2022/08/06 05:47:49;;;;;;;2.88;1.13;;;;;;;17.66;90.68;101844.28;4992912;28;20502;-67
2022/08/06 05:50:20;;;;;;;1.95;1.00;;;;;;;17.97;89.72;101843.81;4994400;28;20038;-67
2022/08/06 05:53:08;;;;;;;1.45;0.73;;;;;;;18.20;87.08;101844.41;4991487;28;20061;-67
2022/08/06 05:55:50;;;;;;;2.00;0.80;;;;;;;18.32;87.14;101840.63;4989726;28;20038;-67
2022/08/06 05:58:25;;;;;;;1.70;0.90;;;;;;;18.43;86.86;101845.03;4992907;28;20046;-67
2022/08/06 06:00:51;;;;;;;1.35;0.82;;;;;;;18.67;85.83;101840.91;4980563;28;20498;-67
2022/08/06 06:03:19;;;;;;;0.95;0.85;;;;;;;18.75;85.53;101845.25;4994263;28;20479;-67
2022/08/06 06:05:45;;;;;;;4.22;0.90;;;;;;;18.91;84.77;101848.47;4993482;28;20176;-67
2022/08/06 06:08:10;;;;;;;2.80;0.98;;;;;;;19.19;84.08;101847.81;4993392;28;20030;-67
2022/08/06 06:10:39;;;;;;;4.53;1.00;;;;;;;19.36;83.75;101842.47;4988887;28;20495;-67
2022/08/06 06:13:05;;;;;;;2.47;0.70;;;;;;;19.68;82.15;101846.09;4991378;28;20042;-67
2022/08/06 06:15:43;;;;;;;1.05;0.60;;;;;;;19.95;78.87;101856.66;4993965;28;20030;-67
2022/08/06 06:18:19;;;;;;;0.93;0.40;;;;;;;20.10;78.43;101847.28;4982487;28;20069;-66
2022/08/06 06:21:09;;;;;;;1.02;0.50;;;;;;;20.40;78.11;101855.94;4993415;28;20089;-66
2022/08/06 06:23:40;;;;;;;0.63;0.50;;;;;;;20.58;75.80;101856.69;4990009;28;20395;-66
2022/08/06 06:26:21;;;;;;;0.55;0.45;;;;;;;20.67;75.05;101863.31;4994152;28;20045;-66
2022/08/06 06:29:28;;;;;;;0.90;0.50;;;;;;;20.73;74.00;101855.50;4991958;28;20495;-66
2022/08/06 06:32:01;;;;;;;1.55;0.80;;;;;;;20.79;73.15;101861.38;4971962;28;20030;-67
2022/08/06 06:34:37;;;;;;;0.60;0.43;;;;;;;20.89;73.19;101868.75;4979072;28;20050;-67
2022/08/06 06:37:09;;;;;;;2.78;0.75;;;;;;;20.96;72.44;101864.06;4990290;28;20038;-66
2022/08/06 06:39:44;;;;;;;1.00;0.60;;;;;;;21.08;73.38;101874.63;4982676;28;20045;-66
2022/08/06 06:42:22;;;;;;;0.95;0.47;;;;;;;21.13;72.43;101871.50;4989682;28;20038;-66
2022/08/06 06:44:57;;;;;;;1.85;0.82;;;;;;;21.24;72.03;101880.44;4990952;28;20054;-66
2022/08/06 06:47:36;;;;;;;1.33;0.60;;;;;;;21.34;70.81;101871.41;4991380;28;20030;-66
2022/08/06 06:50:11;;;;;;;1.20;0.60;;;;;;;21.46;71.58;101867.44;4991945;28;20037;-67
2022/08/06 06:52:40;;;;;;;3.05;0.60;;;;;;;21.48;72.35;101874.09;4993205;28;20121;-67
2022/08/06 06:55:24;;;;;;;1.30;0.70;;;;;;;21.58;71.36;101875.22;5007263;28;20034;-67
2022/08/06 06:58:01;;;;;;;0.82;0.70;;;;;;;21.73;70.22;101870.44;4991699;28;20450;-67
2022/08/06 07:00:27;;;;;;;1.23;0.90;;;;;;;21.81;69.71;101883.75;4992919;28;20046;-68
2022/08/06 07:02:55;;;;;;;1.55;0.50;;;;;;;21.94;69.45;101884.81;4993186;28;20419;-67
2022/08/06 07:05:22;;;;;;;1.58;0.70;;;;;;;22.01;69.83;101886.75;5007940;28;20045;-68
2022/08/06 07:07:49;;;;;;;0.30;0.30;;;;;;;22.14;67.54;101885.09;4992019;28;20034;-67
2022/08/06 07:10:18;;;;;;;0.93;0.50;;;;;;;22.28;67.71;101887.69;4983158;28;20572;-68
2022/08/06 07:12:45;;;;;;;0.40;0.40;;;;;;;22.28;66.20;101890.44;5005582;28;20130;-68
2022/08/06 07:15:12;;;;;;;0.40;0.20;;;;;;;22.36;65.21;101892.75;4986818;28;20038;-67
2022/08/06 07:17:39;;;;;;;0.35;0.30;;;;;;;22.47;66.07;101891.88;4993212;28;20039;-67
2022/08/06 07:20:11;;;;;;;2.00;0.25;;;;;;;22.51;64.95;101900.88;4984052;28;20110;-67
2022/08/06 07:22:41;;;;;;;1.15;0.30;;;;;;;22.67;64.70;101901.13;4981287;28;20037;-67
2022/08/06 07:25:08;;;;;;;0.25;0.25;;;;;;;22.76;63.60;101901.47;5006434;28;20049;-67
2022/08/06 07:27:38;;;;;;;0.57;0.28;;;;;;;22.94;63.61;101913.81;4991292;28;20117;-67
2022/08/06 07:30:05;;;;;;;0.43;0.30;;;;;;;22.99;62.61;101910.66;4981410;28;20134;-65
2022/08/06 07:32:34;;;;;;;1.08;0.50;;;;;;;23.06;63.39;101915.28;4976078;28;20407;-66
2022/08/06 07:35:08;;;;;;;1.27;0.50;;;;;;;23.18;63.36;101912.00;4987379;28;20030;-65
2022/08/06 07:37:35;;;;;;;0.40;0.40;;;;;;;23.39;62.75;101914.53;4982732;28;20034;-65
2022/08/06 07:40:02;;;;;;;0.65;0.20;;;;;;;23.56;60.80;101929.25;4975501;28;20034;-65
2022/08/06 07:42:28;;;;;;;1.05;0.30;;;;;;;23.62;59.07;101922.91;4989378;28;20034;-67
2022/08/06 07:44:58;;;;;;;0.70;0.30;;;;;;;23.72;59.31;101921.19;4991462;28;20038;-68
2022/08/06 07:47:29;;;;;;;0.20;0.20;;;;;;;23.75;60.80;101932.16;4992218;28;20038;-67
2022/08/06 07:49:58;;;;;;;0.50;0.20;;;;;;;23.90;57.83;101925.28;4990417;28;20030;-68
2022/08/06 07:52:25;;;;;;;3.30;0.20;;;;;;;23.94;57.59;101928.72;4984271;28;20035;-67
2022/08/06 07:54:53;;;;;;;0.20;0.20;;;;;;;23.97;58.04;101921.63;4981058;28;20030;-67
2022/08/06 07:57:19;;;;;;;1.52;0.20;;;;;;;24.02;57.35;101923.97;4982270;28;20100;-68
2022/08/06 07:59:46;;;;;;;0.75;0.22;;;;;;;24.11;57.80;101933.25;4980843;28;20663;-68
2022/08/06 08:02:12;;;;;;;0.10;0.10;;;;;;;24.30;57.07;101933.75;4987296;28;20080;-68
2022/08/06 08:07:24;;;;;;;0.35;0.10;;;;;;;23.99;56.76;101935.75;4994209;28;20026;-68
2022/08/06 08:09:51;;;;;;;1.38;0.15;;;;;;;23.74;57.47;101927.84;4986774;28;20521;-69
2022/08/06 08:12:18;;;;;;;0.30;0.20;;;;;;;23.65;57.96;101935.06;4994205;28;20125;-68
2022/08/06 08:14:45;;;;;;;0.38;0.30;;;;;;;23.60;57.61;101941.78;4982198;28;20066;-68
2022/08/06 08:17:11;;;;;;;0.17;0.17;;;;;;;23.40;58.05;101937.34;4984215;28;20046;-68
2022/08/06 08:19:37;;;;;;;0.17;0.17;;;;;;;23.20;58.01;101943.41;4989020;28;20417;-69
2022/08/06 08:22:17;;;;;;;1.02;0.30;;;;;;;23.06;58.70;101937.25;4984696;28;20042;-68
2022/08/06 08:24:45;;;;;;;0.45;0.20;;;;;;;22.88;59.59;101942.19;4988791;28;20120;-68
2022/08/06 08:27:11;;;;;;;3.33;0.43;;;;;;;22.81;60.52;101942.22;4977169;28;20035;-68
2022/08/06 08:29:41;;;;;;;0.20;0.20;;;;;;;22.75;61.32;101947.38;4985397;28;20398;-68
2022/08/06 08:32:08;;;;;;;0.43;0.30;;;;;;;22.71;61.12;101954.09;4989955;28;20253;-68
2022/08/06 08:34:35;;;;;;;1.73;0.32;;;;;;;22.75;61.63;101952.88;4990741;28;20412;-68
2022/08/06 08:37:01;;;;;;;0.35;0.30;;;;;;;22.86;61.03;101950.03;4991235;28;20047;-68
2022/08/06 08:39:27;;;;;;;0.30;0.20;;;;;;;23.04;61.60;101951.44;4990639;28;20541;-68
2022/08/06 08:42:23;;;;;;;0.85;0.20;;;;;;;23.25;58.50;101953.94;4996212;28;20034;-68
2022/08/06 08:44:49;;;;;;;2.35;0.20;;;;;;;23.48;57.20;101960.81;5001888;28;20072;-68
2022/08/06 08:47:17;;;;;;;0.68;0.40;;;;;;;23.80;57.15;101961.97;5011287;28;20030;-68
2022/08/06 08:49:49;;;;;;;0.10;0.10;;;;;;;24.04;54.21;101952.63;4990791;28;20562;-68
2022/08/06 08:52:23;;;;;;;0.05;0.05;;;;;;;24.39;53.75;101958.81;4990765;28;20376;-68
2022/08/06 08:54:51;;;;;;;0.13;0.13;;;;;;;24.71;51.76;101953.56;4991399;28;20455;-68
2022/08/06 08:57:18;;;;;;;0.63;0.20;;;;;;;25.11;50.73;101962.72;4987138;28;20039;-68
2022/08/06 08:59:44;;;;;;;1.58;0.10;;;;;;;25.36;50.58;101968.56;4985579;28;20483;-68
2022/08/06 09:02:13;;;;;;;0.05;0.05;;;;;;;25.58;49.29;101972.47;4982139;28;20038;-68
2022/08/06 09:04:39;;;;;;;1.00;0.17;;;;;;;25.65;48.81;101964.03;4988497;28;20037;-68
2022/08/06 09:07:07;;;;;;;1.52;0.10;;;;;;;25.87;48.67;101970.69;5002712;28;20048;-68
2022/08/06 09:09:34;;;;;;;0.10;0.10;;;;;;;25.88;48.08;101972.22;4977594;28;20038;-68
2022/08/06 09:12:00;;;;;;;0.10;0.10;;;;;;;25.95;48.35;101977.59;5006468;28;20564;-66
2022/08/06 09:14:26;;;;;;;0.45;0.20;;;;;;;26.08;47.90;101974.97;5011011;28;20045;-66
2022/08/06 09:16:52;;;;;;;1.73;0.20;;;;;;;26.21;47.07;101967.59;5007689;28;20046;-66
2022/08/06 09:19:18;;;;;;;0.30;0.10;;;;;;;26.35;46.04;101970.00;4993515;28;20045;-66
2022/08/06 09:21:44;;;;;;;0.10;0.10;;;;;;;26.37;46.54;101976.66;4994797;28;20031;-66
2022/08/06 09:24:10;;;;;;;0.30;0.17;;;;;;;26.44;46.21;101964.66;4994794;28;20463;-66
2022/08/06 09:26:36;;;;;;;0.30;0.20;;;;;;;26.49;46.52;101978.75;4994860;28;20038;-66
2022/08/06 09:29:18;;;;;;;2.58;0.15;;;;;;;26.39;45.59;101981.75;4994117;28;20411;-66
2022/08/06 09:31:44;;;;;;;0.05;0.05;;;;;;;26.37;46.91;101976.66;4994893;28;20039;-66
2022/08/06 09:34:09;;;;;;;0.10;0.10;;;;;;;26.53;46.83;101984.97;4994450;28;20047;-66
2022/08/06 09:36:43;;;;;;;0.20;0.10;;;;;;;26.59;45.65;101985.22;4994827;28;20034;-66
2022/08/06 09:39:08;;;;;;;0.10;0.10;;;;;;;26.73;45.61;101987.69;4991517;28;20066;-66
2022/08/06 09:41:44;;;;;;;0.82;0.10;;;;;;;26.87;45.54;101994.84;4993673;28;20308;-66
2022/08/06 09:44:11;;;;;;;0.10;0.10;;;;;;;26.95;44.61;101991.44;4994628;28;20045;-66
2022/08/06 09:46:45;;;;;;;1.30;0.10;;;;;;;27.13;44.26;101986.25;4994259;28;20530;-66
2022/08/06 09:49:13;;;;;;;0.30;0.20;;;;;;;27.31;44.14;101985.75;4993806;28;20057;-66
2022/08/06 09:51:40;;;;;;;0.30;0.10;;;;;;;27.38;44.34;101993.88;4994664;28;20057;-66
2022/08/06 09:54:09;;;;;;;0.60;0.22;;;;;;;27.64;44.25;101987.97;4991163;28;20030;-66
2022/08/06 09:56:36;;;;;;;0.45;0.10;;;;;;;27.85;44.32;101992.13;4993166;28;20038;-66
2022/08/06 09:59:07;;;;;;;0.10;0.10;;;;;;;27.84;43.11;101985.03;4993583;28;20088;-66
2022/08/06 10:01:50;;;;;;;0.75;0.10;;;;;;;27.88;43.15;101984.91;4994062;28;20052;-66
2022/08/06 10:04:27;;;;;;;0.10;0.10;;;;;;;27.99;42.83;101983.41;4990344;28;20026;-66
2022/08/06 10:06:55;;;;;;;0.10;0.10;;;;;;;28.27;42.45;101982.53;4993570;28;20045;-67
2022/08/06 10:09:21;;;;;;;0.00;0.00;;;;;;;28.44;41.74;101988.75;5007871;28;20046;-67
2022/08/06 10:11:47;;;;;;;0.43;0.10;;;;;;;28.44;41.96;101997.06;4989625;28;20038;-66
2022/08/06 10:14:27;;;;;;;0.30;0.13;;;;;;;28.61;41.57;102000.53;4989325;28;20038;-67
2022/08/06 10:17:09;;;;;;;3.30;0.10;;;;;;;28.37;41.32;101989.75;4993177;28;20169;-66
2022/08/06 10:19:35;;;;;;;0.70;0.38;;;;;;;28.08;42.54;101989.09;4986944;28;20177;-66
2022/08/06 10:22:15;;;;;;;0.50;0.17;;;;;;;27.85;42.92;101989.38;4990117;28;20555;-66
2022/08/06 10:24:42;;;;;;;0.10;0.10;;;;;;;27.70;43.66;101990.97;5003986;28;20117;-66
2022/08/06 10:27:10;;;;;;;0.82;0.20;;;;;;;27.89;42.74;101998.34;4991165;28;20038;-67
2022/08/06 10:29:44;;;;;;;0.15;0.10;;;;;;;28.04;42.81;101999.50;4987479;28;20034;-67
2022/08/06 10:32:15;;;;;;;0.10;0.10;;;;;;;28.14;41.08;102003.16;4980238;28;20039;-67
2022/08/06 10:34:44;;;;;;;0.15;0.10;;;;;;;28.15;41.00;101997.19;4979496;28;20442;-67
2022/08/06 10:37:11;;;;;;;0.17;0.10;;;;;;;28.32;41.74;101989.53;4990304;28;20037;-68
2022/08/06 10:39:41;;;;;;;0.10;0.10;;;;;;;28.39;41.72;101987.31;4984086;28;20147;-67
2022/08/06 10:42:08;;;;;;;0.27;0.10;;;;;;;28.25;42.32;101993.31;4992203;28;20124;-67
2022/08/06 10:44:34;;;;;;;0.10;0.10;;;;;;;28.12;41.95;101995.31;4988021;28;20096;-68
2022/08/06 10:47:01;;;;;;;0.60;0.10;;;;;;;27.80;44.01;101992.66;4990718;28;21117;-68
2022/08/06 10:49:27;;;;;;;0.15;0.10;;;;;;;27.55;44.05;101989.84;4990890;28;20046;-68
2022/08/06 10:51:54;;;;;;;0.10;0.10;;;;;;;27.28;44.88;102003.22;4999443;28;20096;-67
2022/08/06 10:54:19;;;;;;;0.65;0.13;;;;;;;27.11;44.66;101998.94;4989566;28;20046;-68
2022/08/06 10:56:46;;;;;;;0.35;0.13;;;;;;;27.25;44.93;101991.06;4991742;28;20054;-68
2022/08/06 10:59:16;;;;;;;2.50;0.10;;;;;;;27.44;44.51;101986.59;4991939;28;20050;-68
2022/08/06 11:02:06;;;;;;;0.17;0.10;;;;;;;27.90;43.77;101977.72;4995950;28;20038;-68
2022/08/06 11:04:43;;;;;;;2.35;0.20;;;;;;;28.30;42.14;101975.34;4990407;28;20507;-68
2022/08/06 11:07:21;;;;;;;0.43;0.10;;;;;;;28.57;41.49;101975.69;4992979;28;20386;-68
2022/08/06 11:10:02;;;;;;;0.35;0.13;;;;;;;28.77;40.83;101972.63;4988934;28;20038;-68
2022/08/06 11:12:49;;;;;;;2.22;0.22;;;;;;;28.77;40.44;101972.63;4992884;28;20085;-68
2022/08/06 11:15:15;;;;;;;0.13;0.13;;;;;;;28.71;41.25;101974.41;4992444;28;20057;-68
2022/08/06 11:17:46;;;;;;;0.70;0.20;;;;;;;28.36;42.59;101971.56;4989096;28;20034;-67
2022/08/06 11:20:36;;;;;;;0.40;0.20;;;;;;;27.78;43.59;101977.72;4991458;28;20049;-67
2022/08/06 11:23:22;;;;;;;0.30;0.20;;;;;;;27.38;45.58;101982.81;4990197;28;20545;-67
2022/08/06 11:25:52;;;;;;;2.05;0.40;;;;;;;27.04;46.44;101986.06;4992567;28;20065;-67
2022/08/06 11:28:27;;;;;;;0.70;0.43;;;;;;;26.74;46.31;101978.16;4990048;28;20420;-67
2022/08/06 11:30:56;;;;;;;0.65;0.28;;;;;;;26.17;46.14;101975.94;4990277;28;20661;-66
2022/08/06 11:33:44;;;;;;;0.98;0.50;;;;;;;26.16;46.27;101963.34;4991530;28;20033;-67
2022/08/06 11:36:23;;;;;;;0.60;0.35;;;;;;;26.10;45.28;101965.06;4988737;28;20390;-67
2022/08/06 11:38:52;;;;;;;0.80;0.50;;;;;;;26.20;44.88;101963.25;4988549;28;20507;-66
2022/08/06 11:41:21;;;;;;;1.08;0.68;;;;;;;26.22;44.14;101950.56;4986499;28;20030;-67
2022/08/06 11:43:48;;;;;;;0.50;0.40;;;;;;;26.34;44.14;101955.44;4989138;28;20034;-67